createdAt,value
2022-09-23T00:00:37.542Z,95320.66
2022-09-23T00:03:04.477Z,95316.38
2022-09-23T00:05:31.315Z,95322.78
2022-09-23T00:07:58.322Z,95324.25
2022-09-23T00:10:27.523Z,95315.91
2022-09-23T00:12:54.938Z,95317.03
2022-09-23T00:15:21.720Z,95321.34
2022-09-23T00:17:48.192Z,95322.91
2022-09-23T00:20:14.674Z,95315.66
2022-09-23T00:22:41.142Z,95317.41
2022-09-23T00:25:09.379Z,95312.19
2022-09-23T00:27:38.075Z,95322.69
2022-09-23T00:30:07.016Z,95316.38
2022-09-23T00:32:34.192Z,95315.34
2022-09-23T00:35:01.125Z,95313.72
2022-09-23T00:37:31.168Z,95311.41
2022-09-23T00:39:57.794Z,95315.97
2022-09-23T00:42:24.646Z,95311.66
2022-09-23T00:44:58.950Z,95316.53
2022-09-23T00:47:47.453Z,95316.00
2022-09-23T00:50:17.294Z,95313.91
2022-09-23T00:52:44.171Z,95309.22
2022-09-23T00:55:15.601Z,95310.25
2022-09-23T00:57:44.511Z,95308.13
2022-09-23T01:00:11.469Z,95317.88
2022-09-23T01:02:38.216Z,95310.78
2022-09-23T01:05:06.577Z,95304.91
2022-09-23T01:07:33.643Z,95303.13
2022-09-23T01:10:00.959Z,95298.19
2022-09-23T01:12:44.883Z,95303.94
2022-09-23T01:15:20.269Z,95304.75
2022-09-23T01:18:09.791Z,95306.06
2022-09-23T01:20:48.486Z,95305.81
2022-09-23T01:23:37.957Z,95302.25
2022-09-23T01:26:46.664Z,95297.84
2022-09-23T01:29:25.263Z,95313.31
2022-09-23T01:32:07.314Z,95302.16
2022-09-23T01:34:37.594Z,95307.81
2022-09-23T01:37:10.157Z,95306.38
2022-09-23T01:39:42.140Z,95300.63
2022-09-23T01:42:18.694Z,95299.41
2022-09-23T01:45:01.946Z,95302.31
2022-09-23T01:47:36.034Z,95299.16
2022-09-23T01:50:05.680Z,95305.81
2022-09-23T01:52:39.201Z,95307.09
2022-09-23T01:55:10.928Z,95299.78
2022-09-23T01:57:47.106Z,95301.00
2022-09-23T02:00:18.551Z,95304.38
2022-09-23T02:02:52.382Z,95299.41
2022-09-23T02:05:22.240Z,95303.22
2022-09-23T02:07:58.887Z,95296.44
2022-09-23T02:10:36.221Z,95291.22
2022-09-23T02:13:08.756Z,95297.09
2022-09-23T02:15:38.433Z,95305.66
2022-09-23T02:18:34.355Z,95298.09
2022-09-23T02:21:05.596Z,95289.66
2022-09-23T02:23:35.717Z,95295.34
2022-09-23T02:26:05.140Z,95297.97
2022-09-23T02:28:43.733Z,95307.75
2022-09-23T02:31:16.473Z,95304.22
2022-09-23T02:33:55.656Z,95303.78
2022-09-23T02:36:29.598Z,95295.47
2022-09-23T02:38:59.302Z,95286.59
2022-09-23T02:41:55.692Z,95282.28
2022-09-23T02:44:22.698Z,95283.94
2022-09-23T02:46:49.459Z,95283.84
2022-09-23T02:49:23.016Z,95287.25
2022-09-23T02:51:49.813Z,95287.59
2022-09-23T02:54:19.149Z,95285.94
2022-09-23T02:56:48.254Z,95293.16
2022-09-23T02:59:14.899Z,95297.44
2022-09-23T03:01:44.393Z,95300.41
2022-09-23T03:04:29.691Z,95297.63
2022-09-23T03:07:06.364Z,95302.34
2022-09-23T03:09:41.702Z,95311.47
2022-09-23T03:12:39.248Z,95307.47
2022-09-23T03:15:19.393Z,95302.47
2022-09-23T03:18:01.686Z,95297.09
2022-09-23T03:20:43.726Z,95297.84
2022-09-23T03:23:12.468Z,95301.59
2022-09-23T03:25:40.451Z,95295.78
2022-09-23T03:28:07.390Z,95297.50
2022-09-23T03:30:36.778Z,95291.63
2022-09-23T03:33:08.505Z,95302.22
2022-09-23T03:35:37.240Z,95303.22
2022-09-23T03:38:10.067Z,95300.66
2022-09-23T03:40:40.586Z,95309.03
2022-09-23T03:43:07.209Z,95303.03
2022-09-23T03:45:34.518Z,95304.09
2022-09-23T03:48:03.782Z,95300.94
2022-09-23T03:50:30.348Z,95302.13
2022-09-23T03:52:56.745Z,95296.75
2022-09-23T03:55:23.201Z,95291.63
2022-09-23T03:57:49.644Z,95287.22
2022-09-23T04:00:16.856Z,95287.47
2022-09-23T04:02:43.638Z,95283.06
2022-09-23T04:05:11.410Z,95286.38
2022-09-23T04:07:37.859Z,95285.50
2022-09-23T04:10:05.562Z,95290.22
2022-09-23T04:12:51.667Z,95283.66
2022-09-23T04:15:18.202Z,95292.22
2022-09-23T04:17:44.667Z,95287.34
2022-09-23T04:20:12.147Z,95285.22
2022-09-23T04:22:38.623Z,95281.84
2022-09-23T04:25:05.523Z,95282.88
2022-09-23T04:27:36.858Z,95283.81
2022-09-23T04:30:04.548Z,95278.66
2022-09-23T04:32:31.007Z,95284.34
2022-09-23T04:34:57.480Z,95281.38
2022-09-23T04:37:23.973Z,95289.31
2022-09-23T04:39:50.459Z,95286.91
2022-09-23T04:42:17.013Z,95288.81
2022-09-23T04:44:43.468Z,95293.09
2022-09-23T04:47:11.332Z,95298.06
2022-09-23T04:49:37.779Z,95307.13
2022-09-23T04:52:04.450Z,95305.88
2022-09-23T04:54:31.088Z,95302.78
2022-09-23T04:56:57.759Z,95313.72
2022-09-23T04:59:24.265Z,95316.53
2022-09-23T05:01:50.786Z,95317.75
2022-09-23T05:04:17.613Z,95316.66
2022-09-23T05:06:44.092Z,95321.13
2022-09-23T05:09:16.445Z,95321.97
2022-09-23T05:11:43.340Z,95329.91
2022-09-23T05:14:09.818Z,95329.28
2022-09-23T05:16:36.435Z,95324.78
2022-09-23T05:19:03.092Z,95314.38
2022-09-23T05:21:29.621Z,95320.25
2022-09-23T05:23:57.160Z,95323.38
2022-09-23T05:26:25.011Z,95318.97
2022-09-23T05:28:51.789Z,95315.94
2022-09-23T05:31:20.848Z,95326.25
2022-09-23T05:33:49.418Z,95326.63
2022-09-23T05:36:15.955Z,95331.50
2022-09-23T05:38:42.585Z,95333.25
2022-09-23T05:41:11.772Z,95328.97
2022-09-23T05:43:38.470Z,95336.63
2022-09-23T05:46:11.054Z,95328.59
2022-09-23T05:48:38.361Z,95336.25
2022-09-23T05:51:06.395Z,95331.09
2022-09-23T05:53:32.835Z,95333.53
2022-09-23T05:55:59.320Z,95327.91
2022-09-23T05:58:25.840Z,95332.13
2022-09-23T06:00:52.289Z,95328.25
2022-09-23T06:03:20.247Z,95324.44
2022-09-23T06:05:47.306Z,95324.91
2022-09-23T06:08:14.290Z,95323.25
2022-09-23T06:10:43.028Z,95334.69
2022-09-23T06:13:09.797Z,95334.81
2022-09-23T06:15:36.576Z,95323.13
2022-09-23T06:18:03.741Z,95325.56
2022-09-23T06:20:30.207Z,95326.03
2022-09-23T06:23:05.168Z,95329.84
2022-09-23T06:25:34.003Z,95329.53
2022-09-23T06:28:00.575Z,95327.81
2022-09-23T06:30:27.312Z,95321.59
2022-09-23T06:32:55.460Z,95331.31
2022-09-23T06:35:27.562Z,95330.25
2022-09-23T06:37:54.786Z,95319.72
2022-09-23T06:40:22.123Z,95320.63
2022-09-23T06:42:52.261Z,95322.38
2022-09-23T06:45:18.915Z,95325.69
2022-09-23T06:47:45.381Z,95321.84
2022-09-23T06:50:12.004Z,95322.72
2022-09-23T06:52:39.261Z,95322.56
2022-09-23T06:55:06.560Z,95334.13
2022-09-23T06:57:34.118Z,95326.25
2022-09-23T07:00:00.701Z,95332.97
2022-09-23T07:02:28.065Z,95331.13
2022-09-23T07:04:54.723Z,95327.41
2022-09-23T07:07:21.165Z,95330.88
2022-09-23T07:09:47.708Z,95328.19
2022-09-23T07:12:14.139Z,95330.00
2022-09-23T07:14:40.613Z,95319.94
2022-09-23T07:17:07.062Z,95331.03
2022-09-23T07:19:33.523Z,95332.81
2022-09-23T07:21:59.982Z,95339.06
2022-09-23T07:24:26.465Z,95327.63
2022-09-23T07:26:52.923Z,95331.16
2022-09-23T07:29:19.442Z,95336.06
2022-09-23T07:31:45.990Z,95331.97
2022-09-23T07:34:12.655Z,95334.47
2022-09-23T07:36:39.786Z,95328.75
2022-09-23T07:39:08.439Z,95330.19
2022-09-23T07:41:35.003Z,95333.47
2022-09-23T07:44:01.723Z,95332.22
2022-09-23T07:46:31.023Z,95340.06
2022-09-23T07:48:58.152Z,95339.81
2022-09-23T07:51:30.805Z,95337.88
2022-09-23T07:53:59.909Z,95341.88
2022-09-23T07:56:28.663Z,95335.56
2022-09-23T07:58:55.485Z,95336.34
2022-09-23T08:01:21.955Z,95332.28
2022-09-23T08:03:48.462Z,95332.91
2022-09-23T08:06:14.922Z,95331.38
2022-09-23T08:08:41.534Z,95328.25
2022-09-23T08:11:09.547Z,95327.03
2022-09-23T08:13:36.263Z,95327.34
2022-09-23T08:16:03.057Z,95331.69
2022-09-23T08:18:29.658Z,95337.91
2022-09-23T08:20:56.129Z,95336.59
2022-09-23T08:23:22.583Z,95342.72
2022-09-23T08:25:49.033Z,95336.56
2022-09-23T08:28:16.339Z,95342.75
2022-09-23T08:30:44.130Z,95343.81
2022-09-23T08:33:14.229Z,95343.00
2022-09-23T08:35:41.222Z,95345.09
2022-09-23T08:38:07.943Z,95347.53
2022-09-23T08:40:39.806Z,95349.41
2022-09-23T08:43:07.727Z,95340.19
2022-09-23T08:45:35.614Z,95345.25
2022-09-23T08:48:10.765Z,95341.22
2022-09-23T08:50:42.142Z,95335.06
2022-09-23T08:53:23.908Z,95332.34
2022-09-23T08:55:51.840Z,95334.22
2022-09-23T08:58:36.987Z,95337.44
2022-09-23T09:01:26.618Z,95333.66
2022-09-23T09:03:58.431Z,95340.38
2022-09-23T09:06:52.517Z,95338.97
2022-09-23T09:09:19.787Z,95332.78
2022-09-23T09:11:48.757Z,95341.09
2022-09-23T09:14:23.668Z,95339.56
2022-09-23T09:17:08.627Z,95330.59
2022-09-23T09:19:55.844Z,95330.28
2022-09-23T09:22:28.339Z,95326.75
2022-09-23T09:25:01.484Z,95327.41
2022-09-23T09:27:27.919Z,95320.53
2022-09-23T09:29:54.552Z,95319.47
2022-09-23T09:32:36.329Z,95324.06
2022-09-23T09:35:11.242Z,95315.81
2022-09-23T09:37:43.370Z,95309.94
2022-09-23T09:40:14.067Z,95315.63
2022-09-23T09:42:41.653Z,95309.19
2022-09-23T09:45:21.395Z,95312.66
2022-09-23T09:47:56.814Z,95316.31
2022-09-23T09:50:55.657Z,95314.25
2022-09-23T09:53:27.693Z,95316.44
2022-09-23T09:56:10.042Z,95309.81
2022-09-23T09:58:49.614Z,95323.09
2022-09-23T10:01:24.390Z,95319.31
2022-09-23T10:03:56.922Z,95315.56
2022-09-23T10:06:30.790Z,95309.72
2022-09-23T10:09:16.249Z,95313.25
2022-09-23T10:12:02.102Z,95304.75
2022-09-23T10:14:28.663Z,95302.31
2022-09-23T10:17:03.420Z,95299.41
2022-09-23T10:19:30.116Z,95297.25
2022-09-23T10:21:58.735Z,95293.78
2022-09-23T10:24:33.557Z,95298.88
2022-09-23T10:27:03.588Z,95289.22
2022-09-23T10:29:32.944Z,95291.59
2022-09-23T10:32:20.691Z,95279.88
2022-09-23T10:34:51.428Z,95285.44
2022-09-23T10:37:40.321Z,95275.22
2022-09-23T10:40:37.716Z,95269.91
2022-09-23T10:43:07.922Z,95267.06
2022-09-23T10:45:41.206Z,95268.41
2022-09-23T10:48:21.325Z,95259.91
2022-09-23T10:50:49.451Z,95258.34
2022-09-23T10:53:42.239Z,95252.41
2022-09-23T10:57:01.326Z,95255.59
2022-09-23T10:59:49.601Z,95248.38
2022-09-23T11:02:50.979Z,95249.78
2022-09-23T11:05:54.519Z,95245.97
2022-09-23T11:08:39.138Z,95240.13
2022-09-23T11:11:17.632Z,95235.06
2022-09-23T11:14:03.802Z,95235.34
2022-09-23T11:16:55.423Z,95237.19
2022-09-23T11:19:54.776Z,95231.84
2022-09-23T11:22:30.245Z,95230.78
2022-09-23T11:25:29.140Z,95233.44
2022-09-23T11:28:14.409Z,95224.34
2022-09-23T11:31:22.111Z,95228.63
2022-09-23T11:33:59.707Z,95222.19
2022-09-23T11:36:32.708Z,95218.97
2022-09-23T11:39:01.450Z,95212.53
2022-09-23T11:41:30.715Z,95211.69
2022-09-23T11:44:12.484Z,95201.31
2022-09-23T11:46:45.232Z,95201.59
2022-09-23T11:49:15.570Z,95193.50
2022-09-23T11:52:21.750Z,95202.31
2022-09-23T11:55:15.965Z,95193.16
2022-09-23T11:57:51.451Z,95194.19
2022-09-23T12:00:25.414Z,95193.34
2022-09-23T12:03:06.283Z,95185.84
2022-09-23T12:05:38.294Z,95187.69
2022-09-23T12:08:17.586Z,95186.66
2022-09-23T12:10:43.994Z,95188.16
2022-09-23T12:13:11.963Z,95176.44
2022-09-23T12:16:00.583Z,95179.38
2022-09-23T12:18:38.635Z,95183.16
2022-09-23T12:21:33.070Z,95175.06
2022-09-23T12:24:20.283Z,95172.84
2022-09-23T12:26:51.086Z,95166.97
2022-09-23T12:29:17.857Z,95171.28
2022-09-23T12:31:46.755Z,95161.78
2022-09-23T12:34:22.598Z,95158.06
2022-09-23T12:36:50.351Z,95154.31
2022-09-23T12:39:21.734Z,95146.97
2022-09-23T12:41:49.521Z,95147.94
2022-09-23T12:44:52.849Z,95149.16
2022-09-23T12:47:19.389Z,95152.06
2022-09-23T12:49:45.848Z,95149.16
2022-09-23T12:52:18.363Z,95150.31
2022-09-23T12:54:49.591Z,95152.72
2022-09-23T12:57:40.821Z,95149.16
2022-09-23T13:00:07.167Z,95136.44
2022-09-23T13:02:36.506Z,95125.34
2022-09-23T13:05:09.212Z,95135.38
2022-09-23T13:07:42.603Z,95122.59
2022-09-23T13:10:16.660Z,95124.63
2022-09-23T13:12:43.707Z,95118.75
2022-09-23T13:15:17.851Z,95114.97
2022-09-23T13:17:44.370Z,95105.72
2022-09-23T13:20:19.984Z,95106.00
2022-09-23T13:22:49.229Z,95097.50
2022-09-23T13:25:24.125Z,95092.38
2022-09-23T13:27:54.094Z,95087.66
2022-09-23T13:30:26.117Z,95090.03
2022-09-23T13:33:11.058Z,95093.06
2022-09-23T13:35:40.799Z,95098.13
2022-09-23T13:38:11.840Z,95093.06
2022-09-23T13:40:38.791Z,95091.31
2022-09-23T13:43:09.242Z,95098.53
2022-09-23T13:45:40.863Z,95087.97
2022-09-23T13:48:12.179Z,95080.75
2022-09-23T13:50:39.615Z,95084.72
2022-09-23T13:53:09.065Z,95085.53
2022-09-23T13:55:36.639Z,95075.91
2022-09-23T13:58:04.672Z,95086.53
2022-09-23T14:00:36.525Z,95078.66
2022-09-23T14:03:16.178Z,95075.13
2022-09-23T14:05:42.994Z,95075.47
2022-09-23T14:08:09.561Z,95078.44
2022-09-23T14:10:36.075Z,95066.00
2022-09-23T14:13:02.560Z,95061.72
2022-09-23T14:15:29.033Z,95059.16
2022-09-23T14:18:03.090Z,95058.03
2022-09-23T14:20:29.563Z,95064.09
2022-09-23T14:23:07.071Z,95054.75
2022-09-23T14:25:34.282Z,95054.06
2022-09-23T14:28:01.052Z,95057.03
2022-09-23T14:30:27.708Z,95056.63
2022-09-23T14:32:54.173Z,95055.44
2022-09-23T14:35:26.310Z,95055.50
2022-09-23T14:37:58.376Z,95052.25
2022-09-23T14:40:27.276Z,95054.66
2022-09-23T14:43:06.764Z,95049.03
2022-09-23T14:45:38.771Z,95040.47
2022-09-23T14:48:17.143Z,95040.81
2022-09-23T14:50:48.531Z,95041.03
2022-09-23T14:53:17.951Z,95036.84
2022-09-23T14:55:45.491Z,95028.75
2022-09-23T14:58:16.417Z,95029.41
2022-09-23T15:00:57.135Z,95036.47
2022-09-23T15:03:23.821Z,95035.59
2022-09-23T15:05:51.898Z,95028.13
2022-09-23T15:08:23.277Z,95022.22
2022-09-23T15:10:50.129Z,95026.63
2022-09-23T15:13:27.496Z,95016.25
2022-09-23T15:15:54.668Z,95021.50
2022-09-23T15:18:23.296Z,95017.78
2022-09-23T15:20:50.907Z,95019.09
2022-09-23T15:23:34.124Z,95020.47
2022-09-23T15:26:10.113Z,95011.25
2022-09-23T15:28:36.600Z,95020.91
2022-09-23T15:31:03.250Z,95006.94
2022-09-23T15:33:29.703Z,95002.34
2022-09-23T15:35:56.207Z,95011.53
2022-09-23T15:38:22.834Z,95003.19
2022-09-23T15:40:49.372Z,95006.66
2022-09-23T15:43:20.763Z,95011.81
2022-09-23T15:45:59.592Z,95012.69
2022-09-23T15:48:29.254Z,95013.72
2022-09-23T15:50:55.738Z,95015.09
2022-09-23T15:53:25.122Z,95021.47
2022-09-23T15:55:51.872Z,95017.53
2022-09-23T15:58:22.553Z,95016.75
2022-09-23T16:00:54.952Z,95015.00
2022-09-23T16:03:24.666Z,95011.16
2022-09-23T16:05:51.872Z,95012.97
2022-09-23T16:08:18.344Z,95013.50
2022-09-23T16:10:44.904Z,95014.44
2022-09-23T16:13:13.635Z,95005.41
2022-09-23T16:15:42.585Z,95013.66
2022-09-23T16:18:10.832Z,95015.31
2022-09-23T16:20:40.004Z,95015.94
2022-09-23T16:23:18.170Z,95002.63
2022-09-23T16:25:44.701Z,95004.38
2022-09-23T16:28:11.160Z,95002.28
2022-09-23T16:30:37.584Z,95000.41
2022-09-23T16:33:04.057Z,94993.97
2022-09-23T16:35:31.543Z,94997.81
2022-09-23T16:37:58.051Z,95001.66
2022-09-23T16:40:25.069Z,95000.94
2022-09-23T16:42:52.689Z,95002.50
2022-09-23T16:45:20.516Z,95001.03
2022-09-23T16:47:48.108Z,95003.31
2022-09-23T16:50:19.101Z,95003.94
2022-09-23T16:52:45.604Z,95001.56
2022-09-23T16:55:13.400Z,94998.84
2022-09-23T16:57:40.666Z,95008.56
2022-09-23T17:00:11.518Z,94996.56
2022-09-23T17:02:38.063Z,95005.91
2022-09-23T17:05:04.968Z,95006.72
2022-09-23T17:07:31.464Z,95005.16
2022-09-23T17:09:57.984Z,95006.00
2022-09-23T17:12:30.441Z,95014.63
2022-09-23T17:14:56.914Z,95013.53
2022-09-23T17:17:23.498Z,95011.41
2022-09-23T17:19:49.991Z,95010.09
2022-09-23T17:22:16.467Z,95006.78
2022-09-23T17:24:42.940Z,95009.19
2022-09-23T17:27:09.833Z,95006.47
2022-09-23T17:29:37.651Z,95016.75
2022-09-23T17:32:04.217Z,95009.75
2022-09-23T17:34:31.288Z,95015.13
2022-09-23T17:36:57.747Z,95010.63
2022-09-23T17:39:25.370Z,95011.97
2022-09-23T17:41:51.831Z,95003.75
2022-09-23T17:44:18.321Z,95008.88
2022-09-23T17:46:44.790Z,95003.22
2022-09-23T17:49:11.256Z,94997.38
2022-09-23T17:51:37.721Z,94987.28
2022-09-23T17:54:04.235Z,94987.00
2022-09-23T17:56:30.680Z,94984.94
2022-09-23T17:59:00.195Z,94983.03
2022-09-23T18:01:26.879Z,94985.66
2022-09-23T18:03:58.031Z,94980.66
2022-09-23T18:06:27.134Z,94971.91
2022-09-23T18:08:54.378Z,94969.72
2022-09-23T18:11:24.586Z,94970.75
2022-09-23T18:13:52.379Z,94955.50
2022-09-23T18:16:19.806Z,94955.19
2022-09-23T18:18:50.952Z,94951.94
2022-09-23T18:21:17.389Z,94954.28
2022-09-23T18:23:43.870Z,94953.44
2022-09-23T18:26:18.738Z,94958.31
2022-09-23T18:28:45.427Z,94960.47
2022-09-23T18:31:12.017Z,94964.47
2022-09-23T18:33:38.531Z,94960.47
2022-09-23T18:36:05.454Z,94964.22
2022-09-23T18:38:34.948Z,94972.25
2022-09-23T18:41:01.863Z,94971.78
2022-09-23T18:43:35.895Z,94978.81
2022-09-23T18:46:09.298Z,94976.13
2022-09-23T18:48:35.825Z,94975.56
2022-09-23T18:51:02.373Z,94967.78
2022-09-23T18:53:28.924Z,94968.06
2022-09-23T18:55:55.412Z,94967.28
2022-09-23T18:58:21.861Z,94961.63
2022-09-23T19:00:48.908Z,94965.91
2022-09-23T19:03:18.678Z,94978.81
2022-09-23T19:05:46.291Z,94970.78
2022-09-23T19:08:12.755Z,94967.31
2022-09-23T19:10:39.225Z,94978.03
2022-09-23T19:13:05.689Z,94974.56
2022-09-23T19:15:32.825Z,94982.59
2022-09-23T19:17:59.274Z,94987.94
2022-09-23T19:20:25.731Z,94988.44
2022-09-23T19:22:53.271Z,94988.44
2022-09-23T19:25:19.750Z,94991.69
2022-09-23T19:27:46.288Z,94991.44
2022-09-23T19:30:12.746Z,94991.72
2022-09-23T19:32:39.206Z,94994.13
2022-09-23T19:35:05.922Z,95000.00
2022-09-23T19:37:32.361Z,94994.63
2022-09-23T19:39:58.807Z,94985.56
2022-09-23T19:42:25.291Z,94994.91
2022-09-23T19:44:51.738Z,94996.75
2022-09-23T19:47:18.232Z,94995.66
2022-09-23T19:49:45.465Z,94992.19
2022-09-23T19:52:14.255Z,94992.19
2022-09-23T19:54:40.721Z,94988.16
2022-09-23T19:57:07.185Z,94992.47
2022-09-23T19:59:33.616Z,94986.03
2022-09-23T20:02:00.260Z,94988.44
2022-09-23T20:04:27.446Z,94984.16
2022-09-23T20:06:54.489Z,94981.47
2022-09-23T20:09:21.198Z,94983.38
2022-09-23T20:11:50.653Z,94985.78
2022-09-23T20:14:17.114Z,94974.56
2022-09-23T20:16:43.662Z,94973.47
2022-09-23T20:19:10.235Z,94972.16
2022-09-23T20:21:36.851Z,94976.94
2022-09-23T20:24:03.631Z,94968.72
2022-09-23T20:26:30.631Z,94960.09
2022-09-23T20:28:57.172Z,94972.97
2022-09-23T20:31:23.811Z,94972.75
2022-09-23T20:33:54.684Z,94970.31
2022-09-23T20:36:21.276Z,94987.72
2022-09-23T20:38:47.694Z,94966.03
2022-09-23T20:41:14.165Z,94979.16
2022-09-23T20:43:41.029Z,94976.47
2022-09-23T20:46:07.609Z,94975.41
2022-09-23T20:48:34.653Z,94977.53
2022-09-23T20:51:04.990Z,94977.59
2022-09-23T20:53:31.732Z,94980.50
2022-09-23T20:55:59.774Z,94979.19
2022-09-23T20:58:30.574Z,94983.75
2022-09-23T21:01:01.586Z,94976.22
2022-09-23T21:03:30.264Z,94985.88
2022-09-23T21:05:59.988Z,94974.13
2022-09-23T21:08:27.643Z,94984.25
2022-09-23T21:10:56.126Z,94977.03
2022-09-23T21:13:22.902Z,94989.59
2022-09-23T21:15:50.281Z,94977.81
2022-09-23T21:18:21.725Z,94987.16
2022-09-23T21:20:58.725Z,94978.06
2022-09-23T21:23:30.461Z,94983.69
2022-09-23T21:26:01.929Z,94981.56
2022-09-23T21:28:33.018Z,94978.09
2022-09-23T21:31:05.247Z,94972.75
2022-09-23T21:33:32.220Z,94985.91
2022-09-23T21:35:59.979Z,94983.50
2022-09-23T21:38:26.456Z,94977.31
2022-09-23T21:41:01.553Z,94990.41
2022-09-23T21:43:32.433Z,94982.66
2022-09-23T21:46:00.855Z,94992.56
2022-09-23T21:48:28.915Z,94989.09
2022-09-23T21:50:59.214Z,94988.81
2022-09-23T21:53:26.888Z,94984.25
2022-09-23T21:55:53.350Z,94987.69
2022-09-23T21:58:19.784Z,94983.44
2022-09-23T22:00:46.405Z,94989.59
2022-09-23T22:03:13.125Z,94990.63
2022-09-23T22:05:39.603Z,94999.19
2022-09-23T22:08:06.052Z,94987.69
2022-09-23T22:10:33.268Z,94988.50
2022-09-23T22:12:59.927Z,94986.41
2022-09-23T22:15:26.368Z,94987.19
2022-09-23T22:17:52.821Z,94987.75
2022-09-23T22:20:20.034Z,94985.34
2022-09-23T22:22:46.646Z,94997.94
2022-09-23T22:25:13.320Z,94976.78
2022-09-23T22:27:39.808Z,94984.28
2022-09-23T22:30:08.396Z,94970.38
2022-09-23T22:32:34.942Z,94973.03
2022-09-23T22:35:01.787Z,94977.31
2022-09-23T22:37:30.474Z,94969.81
2022-09-23T22:39:57.026Z,94971.38
2022-09-23T22:42:23.566Z,94969.00
2022-09-23T22:44:51.153Z,94969.56
2022-09-23T22:47:18.571Z,94974.63
2022-09-23T22:49:46.147Z,94971.97
2022-09-23T22:52:13.190Z,94979.72
2022-09-23T22:54:39.658Z,94974.13
2022-09-23T22:57:07.803Z,94973.84
2022-09-23T22:59:34.796Z,94984.53
2022-09-23T23:02:02.302Z,94966.63
2022-09-23T23:04:29.983Z,94961.81
2022-09-23T23:06:57.180Z,94969.00
2022-09-23T23:09:23.652Z,94968.22
2022-09-23T23:11:50.122Z,94964.50
2022-09-23T23:14:18.169Z,94963.41
2022-09-23T23:16:45.462Z,94952.19
2022-09-23T23:19:14.722Z,94963.94
2022-09-23T23:21:41.530Z,94962.63
2022-09-23T23:24:14.802Z,94958.06
2022-09-23T23:26:41.933Z,94954.34
2022-09-23T23:29:11.089Z,94949.25
2022-09-23T23:31:37.926Z,94948.97
2022-09-23T23:34:05.239Z,94948.44
2022-09-23T23:36:31.736Z,94944.44
2022-09-23T23:38:58.649Z,94944.13
2022-09-23T23:41:25.138Z,94930.81
2022-09-23T23:43:57.681Z,94934.53
2022-09-23T23:46:25.609Z,94927.56
2022-09-23T23:48:53.342Z,94928.34
2022-09-23T23:51:20.360Z,94923.25
2022-09-23T23:53:47.290Z,94929.16
2022-09-23T23:56:18.982Z,94920.56
2022-09-23T23:58:45.805Z,94925.94
